Weather at Narita International Airport

Public forecast

Using degrees Celsius for public forecast. Weather courtesy of forecast.io.

Current aviation weather report (METAR) for Narita International Airport

Retrieved 2021/04/20 22:30 UTC (8 minutes ago):

RJAA 202230Z 04012KT 010V080 9999 FEW030 16/10 Q1020 NOSIG

Aviation forecast (TAF) for Narita International Airport

Retrieved 2021/04/20 18:30 UTC (4 hours ago):

TAF RJAA 201705Z 2018/2200 04006KT 9999 FEW030 BECMG 2102/2104 17008KT BECMG 2109/2112 36004KT